Terminal Aerodrome Forecast
Issued by NWS Sioux Falls, SD

Home | Current Version | Previous Version | Graphics & Text | Print | Product List | Glossary On
Versions: 1 2 3 4 5 6 7 8 9 10 11 12 13 14
265
FTUS43 KFSD 191720
TAFHON
TAF
KHON 191720Z 1918/2018 18013G22KT P6SM SKC
     FM200200 16010KT P6SM SKC WS020/20040KT
     FM201100 16011G20KT P6SM FEW250
     FM201700 17018G28KT P6SM FEW250=

USA.gov is the U.S. government's official web portal to all federal, state and local government web resources and services.